createdAt,value
2024-01-01T00:00:08.284Z,25.00
2024-01-01T00:02:36.080Z,25.83
2024-01-01T00:05:05.582Z,26.85
2024-01-01T00:07:38.259Z,29.35
2024-01-01T00:10:10.871Z,27.70
2024-01-01T00:12:38.374Z,23.88
2024-01-01T00:15:10.949Z,21.27
2024-01-01T00:20:32.570Z,18.48
2024-01-01T00:23:04.125Z,19.73
2024-01-01T00:25:38.361Z,16.50
2024-01-01T00:28:08.928Z,17.27
2024-01-01T00:33:30.091Z,16.13
2024-01-01T00:36:04.228Z,14.48
2024-01-01T00:38:47.146Z,13.57
2024-01-01T00:41:17.154Z,11.87
2024-01-01T00:43:49.208Z,12.18
2024-01-01T00:46:22.914Z,16.25
2024-01-01T00:48:53.527Z,18.25
2024-01-01T00:51:22.155Z,15.50
2024-01-01T00:53:49.610Z,14.40
2024-01-01T00:56:26.957Z,14.60
2024-01-01T00:59:07.229Z,13.80
2024-01-01T01:01:35.922Z,12.85
2024-01-01T01:04:09.912Z,12.10
2024-01-01T01:06:42.332Z,11.37
2024-01-01T01:09:17.185Z,10.77
2024-01-01T01:11:47.860Z,10.15
2024-01-01T01:14:16.524Z,9.07
2024-01-01T01:16:47.646Z,7.97
2024-01-01T01:19:18.029Z,8.03
2024-01-01T01:21:49.610Z,7.63
2024-01-01T01:24:25.581Z,7.30
2024-01-01T01:26:58.800Z,6.95
2024-01-01T01:29:31.224Z,6.63
2024-01-01T01:31:59.342Z,5.43
2024-01-01T01:34:27.301Z,5.93
2024-01-01T01:36:58.170Z,5.00
2024-01-01T01:39:26.121Z,5.72
2024-01-01T01:42:05.981Z,5.07
2024-01-01T01:44:35.780Z,5.20
2024-01-01T01:47:11.465Z,5.05
2024-01-01T01:49:54.386Z,4.93
2024-01-01T01:52:29.716Z,3.88
2024-01-01T01:55:01.562Z,4.88
2024-01-01T01:57:34.572Z,4.67
2024-01-01T02:00:14.657Z,4.28
2024-01-01T02:02:46.272Z,4.10
2024-01-01T02:08:00.593Z,3.97
2024-01-01T02:10:30.022Z,5.43
2024-01-01T02:13:03.826Z,5.78
2024-01-01T02:15:38.586Z,6.35
2024-01-01T02:18:17.714Z,5.55
2024-01-01T02:20:57.231Z,6.70
2024-01-01T02:23:29.746Z,5.63
2024-01-01T02:26:00.614Z,6.15
2024-01-01T02:28:42.573Z,5.90
2024-01-01T02:31:20.320Z,5.88
2024-01-01T02:33:49.381Z,5.90
2024-01-01T02:36:20.039Z,6.30
2024-01-01T02:38:50.244Z,6.93
2024-01-01T02:41:20.174Z,6.65
2024-01-01T02:43:48.116Z,5.93
2024-01-01T02:46:21.283Z,6.53
2024-01-01T02:48:56.451Z,6.43
2024-01-01T02:51:27.343Z,6.85
2024-01-01T02:54:00.489Z,6.07
2024-01-01T02:56:36.803Z,6.57
2024-01-01T03:01:50.795Z,5.97
2024-01-01T03:04:19.859Z,5.15
2024-01-01T03:09:33.422Z,6.13
2024-01-01T03:12:01.718Z,5.88
2024-01-01T03:15:02.602Z,6.37
2024-01-01T03:17:39.875Z,6.20
2024-01-01T03:20:10.658Z,6.68
2024-01-01T03:25:25.391Z,5.18
2024-01-01T03:28:02.901Z,5.47
2024-01-01T03:30:32.754Z,5.00
2024-01-01T03:33:00.861Z,4.78
2024-01-01T03:35:31.132Z,5.40
2024-01-01T03:37:59.555Z,5.45
2024-01-01T03:40:40.232Z,5.30
2024-01-01T03:43:09.848Z,4.90
2024-01-01T03:45:40.770Z,4.25
2024-01-01T03:48:11.353Z,5.50
2024-01-01T03:50:41.775Z,4.80
2024-01-01T03:53:13.409Z,4.80
2024-01-01T03:55:44.692Z,4.75
2024-01-01T03:58:13.665Z,4.25
2024-01-01T04:00:42.195Z,4.40
2024-01-01T04:03:12.158Z,3.92
2024-01-01T04:05:44.782Z,4.37
2024-01-01T04:08:13.345Z,4.15
2024-01-01T04:10:52.124Z,4.07
2024-01-01T04:13:20.129Z,3.83
2024-01-01T04:15:53.322Z,4.47
2024-01-01T04:18:23.859Z,3.93
2024-01-01T04:20:51.417Z,3.80
2024-01-01T04:23:25.505Z,4.10
2024-01-01T04:26:00.664Z,5.25
2024-01-01T04:28:27.703Z,4.10
2024-01-01T04:30:55.864Z,4.33
2024-01-01T04:33:24.692Z,4.00
2024-01-01T04:35:56.632Z,4.30
2024-01-01T04:38:29.248Z,4.45
2024-01-01T04:41:08.213Z,4.20
2024-01-01T04:43:41.647Z,4.40
2024-01-01T04:46:14.603Z,3.92
2024-01-01T04:48:44.023Z,4.10
2024-01-01T04:51:12.555Z,4.32
2024-01-01T04:53:49.855Z,4.07
2024-01-01T04:56:24.222Z,3.70
2024-01-01T04:58:54.112Z,4.22
2024-01-01T05:01:23.843Z,4.35
2024-01-01T05:03:52.303Z,3.88
2024-01-01T05:06:23.561Z,3.75
2024-01-01T05:08:52.429Z,4.33
2024-01-01T05:11:25.680Z,3.53
2024-01-01T05:13:54.898Z,4.00
2024-01-01T05:16:27.290Z,3.05
2024-01-01T05:18:55.444Z,4.63
2024-01-01T05:21:25.883Z,3.70
2024-01-01T05:24:04.099Z,3.22
2024-01-01T05:26:43.545Z,3.40
2024-01-01T05:29:24.421Z,3.40
2024-01-01T05:31:53.535Z,3.30
2024-01-01T05:34:29.395Z,3.50
2024-01-01T05:37:08.544Z,3.30
2024-01-01T05:39:39.658Z,3.65
2024-01-01T05:44:57.590Z,3.17
2024-01-01T05:47:38.109Z,3.83
2024-01-01T05:52:58.562Z,3.10
2024-01-01T05:55:50.954Z,2.85
2024-01-01T05:58:39.628Z,2.78
2024-01-01T06:01:14.630Z,2.67
2024-01-01T06:06:25.697Z,3.03
2024-01-01T06:14:41.724Z,2.77
2024-01-01T06:17:20.633Z,2.83
2024-01-01T06:19:49.931Z,2.17
2024-01-01T06:22:24.322Z,2.38
2024-01-01T06:24:51.414Z,2.67
2024-01-01T06:27:22.865Z,2.50
2024-01-01T06:29:57.600Z,1.80
2024-01-01T06:32:43.252Z,2.05
2024-01-01T06:35:29.047Z,2.35
2024-01-01T06:57:10.749Z,1.67
2024-01-01T07:05:39.357Z,1.58
2024-01-01T07:23:55.244Z,2.58
2024-01-01T07:32:09.591Z,2.22
2024-01-01T08:28:39.686Z,1.20
2024-01-01T08:42:53.313Z,0.87
2024-01-01T09:12:49.520Z,1.40
2024-01-01T09:15:20.239Z,0.55
2024-01-01T09:40:37.722Z,1.17
2024-01-01T09:46:04.655Z,0.93
2024-01-01T09:48:42.981Z,1.00
2024-01-01T09:52:05.622Z,0.90
2024-01-01T10:00:36.240Z,1.60
2024-01-01T10:05:57.962Z,1.40
2024-01-01T10:15:27.600Z,0.80
2024-01-01T10:18:10.022Z,1.20
2024-01-01T10:43:41.986Z,1.50
2024-01-01T10:46:27.195Z,1.48
2024-01-01T11:30:16.567Z,1.10
2024-01-01T11:32:44.758Z,0.85
2024-01-01T11:35:14.339Z,1.05
2024-01-01T11:37:42.204Z,0.63
2024-01-01T11:40:10.211Z,1.10
2024-01-01T11:42:38.758Z,1.00
2024-01-01T11:45:07.154Z,1.20
2024-01-01T11:47:33.896Z,0.90
2024-01-01T11:50:01.492Z,0.95
2024-01-01T11:52:28.285Z,0.90
2024-01-01T11:54:55.005Z,0.90
2024-01-01T11:57:21.748Z,0.82
2024-01-01T11:59:50.158Z,0.65
2024-01-01T12:02:17.839Z,0.80
2024-01-01T12:04:46.351Z,0.98
2024-01-01T12:07:26.469Z,0.70
2024-01-01T12:10:04.682Z,1.10
2024-01-01T12:12:31.493Z,1.10
2024-01-01T12:15:09.867Z,0.93
2024-01-01T12:17:47.220Z,0.88
2024-01-01T12:20:17.859Z,0.63
2024-01-01T12:22:45.103Z,0.75
2024-01-01T12:25:15.536Z,1.00
2024-01-01T12:27:42.427Z,1.05
2024-01-01T12:30:24.133Z,0.80
2024-01-01T12:32:50.859Z,0.98
2024-01-01T12:35:17.893Z,1.00
2024-01-01T12:37:45.204Z,0.60
2024-01-01T12:40:13.036Z,0.80
2024-01-01T12:42:39.944Z,0.68
2024-01-01T12:45:07.010Z,1.15
2024-01-01T12:47:35.184Z,1.00
2024-01-01T12:50:02.084Z,0.80
2024-01-01T12:52:28.763Z,1.73
2024-01-01T12:54:55.403Z,1.80
2024-01-01T12:57:22.121Z,1.40
2024-01-01T12:59:48.801Z,0.98
2024-01-01T13:02:15.599Z,1.23
2024-01-01T13:04:44.732Z,0.80
2024-01-01T13:07:11.427Z,1.17
2024-01-01T13:09:38.187Z,1.10
2024-01-01T13:12:05.520Z,0.98
2024-01-01T13:14:32.331Z,0.80
2024-01-01T13:16:59.168Z,0.95
2024-01-01T13:19:25.904Z,1.38
2024-01-01T13:21:53.962Z,0.70
2024-01-01T13:24:20.703Z,1.10
2024-01-01T13:26:47.523Z,0.63
2024-01-01T13:29:14.209Z,1.00
2024-01-01T13:31:41.228Z,1.60
2024-01-01T13:34:07.988Z,1.83
2024-01-01T13:36:34.669Z,1.23
2024-01-01T13:39:02.733Z,2.22
2024-01-01T13:41:29.716Z,1.52
2024-01-01T13:43:56.463Z,1.15
2024-01-01T13:46:23.129Z,1.02
2024-01-01T13:48:49.843Z,1.05
2024-01-01T13:51:17.173Z,1.35
2024-01-01T13:53:43.824Z,0.80
2024-01-01T13:56:18.589Z,0.77
2024-01-01T13:58:45.399Z,0.60
2024-01-01T14:01:12.295Z,0.85
2024-01-01T14:03:38.950Z,0.77
2024-01-01T14:06:06.297Z,1.52
2024-01-01T14:08:33.004Z,1.65
2024-01-01T14:10:59.774Z,1.60
2024-01-01T14:13:27.865Z,2.08
2024-01-01T14:15:56.775Z,1.70
2024-01-01T14:18:25.016Z,1.88
2024-01-01T14:20:51.735Z,1.42
2024-01-01T14:23:18.444Z,1.17
2024-01-01T14:25:45.232Z,0.95
2024-01-01T14:28:12.096Z,1.17
2024-01-01T14:30:40.202Z,0.82
2024-01-01T14:33:07.257Z,0.80
2024-01-01T14:35:34.297Z,0.90
2024-01-01T14:38:01.156Z,1.08
2024-01-01T14:40:27.933Z,1.05
2024-01-01T14:42:54.640Z,0.98
2024-01-01T14:45:21.318Z,1.60
2024-01-01T14:47:49.430Z,2.07
2024-01-01T14:50:16.240Z,2.17
2024-01-01T14:52:43.024Z,3.13
2024-01-01T14:55:09.746Z,2.60
2024-01-01T14:57:36.353Z,2.88
2024-01-01T15:00:03.441Z,1.23
2024-01-01T15:02:30.140Z,2.33
2024-01-01T15:04:58.371Z,1.90
2024-01-01T15:07:25.056Z,2.00
2024-01-01T15:09:51.711Z,2.10
2024-01-01T15:12:18.507Z,2.20
2024-01-01T15:14:45.222Z,1.42
2024-01-01T15:17:12.017Z,2.20
2024-01-01T15:19:38.721Z,2.25
2024-01-01T15:22:06.969Z,2.17
2024-01-01T15:24:33.641Z,1.90
2024-01-01T15:27:00.356Z,2.05
2024-01-01T15:29:27.174Z,1.27
2024-01-01T15:31:55.284Z,1.80
2024-01-01T15:34:22.232Z,0.73
2024-01-01T15:36:49.000Z,1.20
2024-01-01T15:39:17.020Z,1.08
2024-01-01T15:41:43.663Z,1.38
2024-01-01T15:44:10.417Z,1.08
2024-01-01T15:46:37.139Z,1.58
2024-01-01T15:49:03.850Z,1.30
2024-01-01T15:51:38.727Z,1.17
2024-01-01T15:54:06.666Z,1.70
2024-01-01T15:56:34.879Z,1.35
2024-01-01T15:59:01.612Z,1.15
2024-01-01T16:01:28.315Z,1.50
2024-01-01T16:03:55.017Z,1.52
2024-01-01T16:06:21.765Z,1.45
2024-01-01T16:08:48.483Z,1.13
2024-01-01T16:11:15.262Z,1.52
2024-01-01T16:13:43.882Z,1.80
2024-01-01T16:16:10.587Z,1.27
2024-01-01T16:18:37.314Z,1.67
2024-01-01T16:21:04.406Z,1.60
2024-01-01T16:23:31.150Z,1.55
2024-01-01T16:25:57.975Z,1.90
2024-01-01T16:28:24.685Z,1.75
2024-01-01T16:30:52.785Z,2.75
2024-01-01T16:33:19.647Z,2.10
2024-01-01T16:35:46.889Z,2.17
2024-01-01T16:38:15.900Z,2.07
2024-01-01T16:40:43.869Z,1.65
2024-01-01T16:43:11.739Z,1.42
2024-01-01T16:45:38.444Z,1.77
2024-01-01T16:48:07.219Z,2.28
2024-01-01T16:50:34.099Z,2.50
2024-01-01T16:53:00.875Z,1.50
2024-01-01T16:55:27.589Z,1.92
2024-01-01T16:57:56.118Z,2.20
2024-01-01T17:00:23.163Z,1.73
2024-01-01T17:02:49.854Z,2.70
2024-01-01T17:05:18.170Z,2.13
